createdAt,value
2017-07-04T00:00:43.577Z,98206.14
2017-07-04T00:03:11.065Z,98209.14
2017-07-04T00:05:40.051Z,98210.45
2017-07-04T00:08:07.673Z,98210.92
2017-07-04T00:10:35.073Z,98201.41
2017-07-04T00:13:02.529Z,98201.81
2017-07-04T00:15:31.952Z,98198.93
2017-07-04T00:17:59.376Z,98200.84
2017-07-04T00:20:28.789Z,98199.14
2017-07-04T00:22:57.914Z,98198.61
2017-07-04T00:25:25.997Z,98201.09
2017-07-04T00:27:53.414Z,98196.84
2017-07-04T00:30:20.843Z,98200.58
2017-07-04T00:32:49.929Z,98196.13
2017-07-04T00:35:17.720Z,98198.12
2017-07-04T00:37:45.738Z,98190.11
2017-07-04T00:40:14.915Z,98188.09
2017-07-04T00:42:43.725Z,98191.07
2017-07-04T00:45:11.119Z,98182.43
2017-07-04T00:47:38.650Z,98188.51
2017-07-04T00:50:06.922Z,98185.88
2017-07-04T00:52:34.355Z,98188.28
2017-07-04T00:55:01.763Z,98187.69
2017-07-04T00:57:31.167Z,98193.45
2017-07-04T00:59:58.593Z,98194.00
2017-07-04T01:02:26.764Z,98189.28
2017-07-04T01:04:54.305Z,98183.88
2017-07-04T01:07:21.715Z,98190.75
2017-07-04T01:09:49.123Z,98187.04
2017-07-04T01:12:16.563Z,98184.56
2017-07-04T01:14:43.968Z,98183.62
2017-07-04T01:17:11.443Z,98182.22
2017-07-04T01:19:38.877Z,98189.27
2017-07-04T01:22:08.103Z,98196.88
2017-07-04T01:24:36.727Z,98192.73
2017-07-04T01:27:05.745Z,98185.05
2017-07-04T01:29:33.185Z,98191.61
2017-07-04T01:32:01.317Z,98192.17
2017-07-04T01:34:28.760Z,98192.12
2017-07-04T01:36:56.317Z,98192.81
2017-07-04T01:39:23.731Z,98190.08
2017-07-04T01:41:52.023Z,98191.44
2017-07-04T01:44:19.427Z,98191.52
2017-07-04T01:46:46.868Z,98189.44
2017-07-04T01:49:14.350Z,98187.11
2017-07-04T01:51:41.771Z,98179.75
2017-07-04T01:54:09.205Z,98186.46
2017-07-04T01:56:36.667Z,98181.69
2017-07-04T01:59:04.111Z,98187.94
2017-07-04T02:01:33.300Z,98182.84
2017-07-04T02:04:02.034Z,98178.34
2017-07-04T02:06:29.503Z,98184.17
2017-07-04T02:08:56.960Z,98181.92
2017-07-04T02:11:24.488Z,98186.00
2017-07-04T02:13:53.939Z,98182.72
2017-07-04T02:16:21.369Z,98171.59
2017-07-04T02:18:48.779Z,98173.91
2017-07-04T02:21:16.249Z,98178.44
2017-07-04T02:23:43.652Z,98173.63
2017-07-04T02:26:11.483Z,98176.80
2017-07-04T02:28:38.992Z,98167.91
2017-07-04T02:31:06.428Z,98178.28
2017-07-04T02:33:34.189Z,98179.86
2017-07-04T02:36:01.624Z,98176.50
2017-07-04T02:38:29.054Z,98172.58
2017-07-04T02:40:57.396Z,98175.71
2017-07-04T02:43:24.852Z,98176.20
2017-07-04T02:45:52.280Z,98175.91
2017-07-04T02:48:19.707Z,98177.52
2017-07-04T02:50:47.120Z,98171.93
2017-07-04T02:53:16.382Z,98171.03
2017-07-04T02:55:43.853Z,98166.47
2017-07-04T02:58:11.362Z,98172.95
2017-07-04T03:00:38.774Z,98177.92
2017-07-04T03:03:06.238Z,98177.44
2017-07-04T03:05:33.663Z,98186.17
2017-07-04T03:08:01.089Z,98182.27
2017-07-04T03:10:28.523Z,98182.22
2017-07-04T03:12:57.695Z,98183.66
2017-07-04T03:15:25.151Z,98180.82
2017-07-04T03:17:54.585Z,98177.69
2017-07-04T03:20:22.062Z,98180.34
2017-07-04T03:22:49.519Z,98177.92
2017-07-04T03:25:16.927Z,98175.45
2017-07-04T03:27:44.369Z,98185.92
2017-07-04T03:30:11.827Z,98186.00
2017-07-04T03:32:39.216Z,98188.45
2017-07-04T03:35:06.736Z,98187.23
2017-07-04T03:37:34.135Z,98191.08
2017-07-04T03:40:01.587Z,98186.48
2017-07-04T03:42:29.737Z,98190.26
2017-07-04T03:44:57.148Z,98189.06
2017-07-04T03:47:24.588Z,98190.98
2017-07-04T03:49:51.984Z,98189.55
2017-07-04T03:52:19.451Z,98198.55
2017-07-04T03:54:47.664Z,98192.55
2017-07-04T03:57:15.085Z,98198.31
2017-07-04T03:59:42.522Z,98195.67
2017-07-04T04:02:09.952Z,98199.19
2017-07-04T04:04:37.431Z,98199.03
2017-07-04T04:07:04.848Z,98200.72
2017-07-04T04:09:33.532Z,98207.52
2017-07-04T04:12:01.120Z,98203.55
2017-07-04T04:14:30.234Z,98202.64
2017-07-04T04:16:57.718Z,98208.88
2017-07-04T04:19:25.186Z,98210.23
2017-07-04T04:21:52.624Z,98209.63
2017-07-04T04:24:20.068Z,98205.14
2017-07-04T04:26:47.524Z,98220.74
2017-07-04T04:29:14.974Z,98217.38
2017-07-04T04:31:42.381Z,98219.48
2017-07-04T04:34:09.820Z,98227.89
2017-07-04T04:36:37.260Z,98225.02
2017-07-04T04:39:04.727Z,98229.23
2017-07-04T04:41:32.356Z,98232.19
2017-07-04T04:43:59.804Z,98232.20
2017-07-04T04:46:27.257Z,98235.55
2017-07-04T04:48:54.665Z,98238.91
2017-07-04T04:51:22.122Z,98239.52
2017-07-04T04:53:51.410Z,98223.70
2017-07-04T04:56:19.690Z,98229.87
2017-07-04T04:58:47.132Z,98229.46
2017-07-04T05:01:14.636Z,98233.17
2017-07-04T05:03:42.092Z,98231.28
2017-07-04T05:06:09.517Z,98229.24
2017-07-04T05:08:36.976Z,98225.75
2017-07-04T05:11:05.406Z,98227.72
2017-07-04T05:13:32.807Z,98231.91
2017-07-04T05:16:00.245Z,98226.36
2017-07-04T05:18:27.759Z,98226.45
2017-07-04T05:20:55.198Z,98225.96
2017-07-04T05:23:22.605Z,98235.97
2017-07-04T05:25:50.052Z,98224.39
2017-07-04T05:28:17.585Z,98232.63
2017-07-04T05:30:44.980Z,98228.36
2017-07-04T05:33:12.454Z,98232.09
2017-07-04T05:35:39.863Z,98241.78
2017-07-04T05:38:07.316Z,98232.98
2017-07-04T05:40:34.770Z,98241.78
2017-07-04T05:43:02.186Z,98234.58
2017-07-04T05:45:29.701Z,98233.33
2017-07-04T05:47:57.257Z,98231.95
2017-07-04T05:50:24.681Z,98233.84
2017-07-04T05:52:52.097Z,98227.81
2017-07-04T05:55:19.571Z,98233.66
2017-07-04T05:57:46.980Z,98237.23
2017-07-04T06:00:14.418Z,98234.75
2017-07-04T06:02:41.905Z,98233.03
2017-07-04T06:05:09.504Z,98236.84
2017-07-04T06:07:37.101Z,98236.53
2017-07-04T06:10:04.844Z,98236.36
2017-07-04T06:12:32.276Z,98239.48
2017-07-04T06:14:59.829Z,98236.52
2017-07-04T06:17:27.293Z,98238.77
2017-07-04T06:19:54.698Z,98235.28
2017-07-04T06:22:22.107Z,98235.14
2017-07-04T06:24:49.551Z,98235.33
2017-07-04T06:27:17.002Z,98235.17
2017-07-04T06:29:44.431Z,98234.83
2017-07-04T06:32:12.059Z,98229.73
2017-07-04T06:34:39.545Z,98240.01
2017-07-04T06:37:06.948Z,98236.17
2017-07-04T06:39:34.352Z,98233.45
2017-07-04T06:42:01.804Z,98231.95
2017-07-04T06:44:29.204Z,98233.61
2017-07-04T06:46:56.618Z,98230.48
2017-07-04T06:49:24.388Z,98235.89
2017-07-04T06:51:51.821Z,98229.32
2017-07-04T06:54:19.273Z,98232.89
2017-07-04T06:56:46.679Z,98236.52
2017-07-04T06:59:14.116Z,98238.30
2017-07-04T07:01:41.527Z,98235.96
2017-07-04T07:04:09.022Z,98238.49
2017-07-04T07:06:36.459Z,98239.64
2017-07-04T07:09:03.919Z,98235.11
2017-07-04T07:11:31.334Z,98237.47
2017-07-04T07:13:58.787Z,98230.69
2017-07-04T07:16:26.267Z,98240.37
2017-07-04T07:18:53.679Z,98235.93
2017-07-04T07:21:21.214Z,98235.52
2017-07-04T07:23:48.640Z,98236.30
2017-07-04T07:26:16.115Z,98240.16
2017-07-04T07:28:43.679Z,98242.97
2017-07-04T07:31:11.101Z,98241.72
2017-07-04T07:33:38.548Z,98236.44
2017-07-04T07:36:05.948Z,98238.81
2017-07-04T07:38:33.394Z,98231.20
2017-07-04T07:41:00.803Z,98231.08
2017-07-04T07:43:28.220Z,98232.45
2017-07-04T07:45:55.804Z,98234.13
2017-07-04T07:48:23.191Z,98233.27
2017-07-04T07:50:50.678Z,98227.43
2017-07-04T07:53:18.104Z,98223.95
2017-07-04T07:55:45.542Z,98223.45
2017-07-04T07:58:12.998Z,98222.30
2017-07-04T08:00:40.424Z,98220.09
2017-07-04T08:03:07.974Z,98209.22
2017-07-04T08:05:35.487Z,98212.14
2017-07-04T08:08:02.904Z,98210.93
2017-07-04T08:10:30.363Z,98212.48
2017-07-04T08:12:57.776Z,98207.30
2017-07-04T08:15:25.181Z,98213.09
2017-07-04T08:17:52.638Z,98216.23
2017-07-04T08:20:20.142Z,98218.24
2017-07-04T08:22:47.556Z,98208.96
2017-07-04T08:25:15.028Z,98215.28
2017-07-04T08:27:42.428Z,98207.43
2017-07-04T08:30:09.841Z,98211.98
2017-07-04T08:32:37.300Z,98209.13
2017-07-04T08:35:04.760Z,98209.86
2017-07-04T08:37:32.421Z,98211.12
2017-07-04T08:39:59.994Z,98202.24
2017-07-04T08:42:27.405Z,98205.17
2017-07-04T08:44:54.819Z,98198.70
2017-07-04T08:47:22.255Z,98198.12
2017-07-04T08:49:49.697Z,98201.72
2017-07-04T08:52:17.128Z,98196.86
2017-07-04T08:54:44.553Z,98195.58
2017-07-04T08:57:12.071Z,98202.89
2017-07-04T08:59:39.498Z,98196.09
2017-07-04T09:02:06.896Z,98199.94
2017-07-04T09:04:34.343Z,98200.04
2017-07-04T09:07:01.765Z,98199.91
2017-07-04T09:09:29.212Z,98190.11
2017-07-04T09:11:56.624Z,98201.85
2017-07-04T09:14:24.373Z,98202.87
2017-07-04T09:16:51.869Z,98204.69
2017-07-04T09:19:19.403Z,98204.63
2017-07-04T09:21:46.853Z,98207.22
2017-07-04T09:24:14.273Z,98200.63
2017-07-04T09:26:41.667Z,98201.39
2017-07-04T09:29:09.112Z,98198.62
2017-07-04T09:31:36.569Z,98193.20
2017-07-04T09:34:03.979Z,98189.02
2017-07-04T09:36:31.504Z,98190.14
2017-07-04T09:38:58.945Z,98181.86
2017-07-04T09:41:26.512Z,98185.48
2017-07-04T09:43:53.957Z,98179.78
2017-07-04T09:46:21.385Z,98182.09
2017-07-04T09:48:48.811Z,98176.86
2017-07-04T09:51:16.256Z,98175.46
2017-07-04T09:53:43.698Z,98185.80
2017-07-04T09:56:11.112Z,98185.63
2017-07-04T09:58:39.170Z,98176.05
2017-07-04T10:01:06.580Z,98173.16
2017-07-04T10:03:34.043Z,98174.38
2017-07-04T10:06:01.463Z,98173.77
2017-07-04T10:08:28.920Z,98173.25
2017-07-04T10:10:56.337Z,98171.69
2017-07-04T10:13:30.056Z,98173.44
2017-07-04T10:15:57.505Z,98165.56
2017-07-04T10:18:24.929Z,98161.75
2017-07-04T10:20:52.360Z,98169.02
2017-07-04T10:23:19.800Z,98166.98
2017-07-04T10:25:47.255Z,98160.55
2017-07-04T10:28:14.670Z,98160.45
2017-07-04T10:30:42.133Z,98162.30
2017-07-04T10:33:09.547Z,98159.62
2017-07-04T10:35:37.007Z,98155.05
2017-07-04T10:38:04.435Z,98151.51
2017-07-04T10:40:31.833Z,98147.20
2017-07-04T10:42:59.278Z,98143.83
2017-07-04T10:45:26.699Z,98148.21
2017-07-04T10:47:54.144Z,98148.05
2017-07-04T10:50:21.580Z,98141.50
2017-07-04T10:52:49.029Z,98144.06
2017-07-04T10:55:16.451Z,98137.34
2017-07-04T10:57:43.860Z,98139.14
2017-07-04T11:00:11.315Z,98137.90
2017-07-04T11:02:38.727Z,98132.87
2017-07-04T11:05:06.136Z,98129.25
2017-07-04T11:07:33.572Z,98123.23
2017-07-04T11:10:00.985Z,98128.81
2017-07-04T11:12:28.493Z,98128.19
2017-07-04T11:14:55.897Z,98121.30
2017-07-04T11:17:23.416Z,98121.94
2017-07-04T11:19:50.855Z,98117.73
2017-07-04T11:22:18.316Z,98110.22
2017-07-04T11:24:45.763Z,98110.76
2017-07-04T11:27:13.168Z,98117.00
2017-07-04T11:29:40.628Z,98112.09
2017-07-04T11:32:08.035Z,98108.34
2017-07-04T11:34:35.476Z,98109.56
2017-07-04T11:37:02.891Z,98107.99
2017-07-04T11:39:30.344Z,98100.45
2017-07-04T11:41:57.744Z,98102.78
2017-07-04T11:44:25.220Z,98094.19
2017-07-04T11:46:52.689Z,98095.37
2017-07-04T11:49:20.096Z,98097.24
2017-07-04T11:51:47.545Z,98095.53
2017-07-04T11:54:14.974Z,98089.97
2017-07-04T11:56:42.387Z,98093.74
2017-07-04T11:59:09.844Z,98093.76
2017-07-04T12:01:37.288Z,98099.70
2017-07-04T12:04:04.730Z,98095.52
2017-07-04T12:06:32.168Z,98093.16
2017-07-04T12:08:59.673Z,98101.23
2017-07-04T12:11:27.110Z,98100.61
2017-07-04T12:13:54.531Z,98097.65
2017-07-04T12:16:21.976Z,98094.67
2017-07-04T12:18:49.549Z,98099.80
2017-07-04T12:21:17.085Z,98098.92
2017-07-04T12:23:44.512Z,98097.84
2017-07-04T12:26:11.915Z,98097.85
2017-07-04T12:28:39.366Z,98092.03
2017-07-04T12:31:06.808Z,98099.34
2017-07-04T12:33:34.264Z,98096.98
2017-07-04T12:36:01.704Z,98094.63
2017-07-04T12:38:29.148Z,98088.98
2017-07-04T12:40:56.581Z,98094.53
2017-07-04T12:43:24.015Z,98088.63
2017-07-04T12:45:51.458Z,98083.91
2017-07-04T12:48:18.867Z,98085.85
2017-07-04T12:50:46.348Z,98077.73
2017-07-04T12:53:13.808Z,98073.89
2017-07-04T12:55:41.265Z,98069.62
2017-07-04T12:58:08.677Z,98062.17
2017-07-04T13:00:36.089Z,98068.03
2017-07-04T13:03:03.524Z,98070.66
2017-07-04T13:05:30.935Z,98067.23
2017-07-04T13:07:58.441Z,98065.44
2017-07-04T13:10:25.898Z,98063.09
2017-07-04T13:12:53.308Z,98066.91
2017-07-04T13:15:20.769Z,98061.00
2017-07-04T13:17:48.205Z,98067.84
2017-07-04T13:20:15.620Z,98070.81
2017-07-04T13:22:43.059Z,98068.48
2017-07-04T13:25:10.488Z,98066.09
2017-07-04T13:27:37.937Z,98058.49
2017-07-04T13:30:05.416Z,98056.95
2017-07-04T13:32:32.834Z,98051.47
2017-07-04T13:35:00.331Z,98056.42
2017-07-04T13:37:27.747Z,98048.97
2017-07-04T13:39:55.243Z,98052.39
2017-07-04T13:42:22.666Z,98052.90
2017-07-04T13:44:50.132Z,98042.12
2017-07-04T13:47:18.067Z,98043.28
2017-07-04T13:49:45.552Z,98044.23
2017-07-04T13:52:13.021Z,98040.94
2017-07-04T13:54:40.490Z,98038.28
2017-07-04T13:57:08.556Z,98038.28
2017-07-04T13:59:35.972Z,98037.78
2017-07-04T14:02:03.485Z,98029.17
2017-07-04T14:04:30.916Z,98033.98
2017-07-04T14:06:58.362Z,98038.31
2017-07-04T14:09:25.760Z,98042.92
2017-07-04T14:11:53.188Z,98041.67
2017-07-04T14:14:20.597Z,98037.19
2017-07-04T14:16:48.052Z,98043.06
2017-07-04T14:19:15.457Z,98041.77
2017-07-04T14:24:09.483Z,98036.94
2017-07-04T14:26:36.937Z,98038.12
2017-07-04T14:29:04.452Z,98031.18
2017-07-04T14:31:32.023Z,98032.34
2017-07-04T14:33:59.436Z,98028.67
2017-07-04T14:36:26.902Z,98024.07
2017-07-04T14:38:54.320Z,98022.33
2017-07-04T14:41:21.736Z,98027.70
2017-07-04T14:43:49.208Z,98027.78
2017-07-04T14:46:16.610Z,98026.45
2017-07-04T14:48:44.227Z,98025.62
2017-07-04T14:51:11.659Z,98025.41
2017-07-04T14:53:39.120Z,98023.74
2017-07-04T14:56:06.561Z,98020.00
2017-07-04T14:58:33.973Z,98025.08
2017-07-04T15:01:01.427Z,98025.42
2017-07-04T15:03:28.868Z,98015.83
2017-07-04T15:05:56.521Z,98013.69
2017-07-04T15:08:23.979Z,98016.03
2017-07-04T15:10:51.487Z,98015.22
2017-07-04T15:13:18.946Z,98014.50
2017-07-04T15:15:46.365Z,98015.73
2017-07-04T15:18:13.776Z,98013.20
2017-07-04T15:20:41.228Z,98019.13
2017-07-04T15:23:08.672Z,98021.79
2017-07-04T15:25:36.097Z,98018.97
2017-07-04T15:28:03.655Z,98014.42
2017-07-04T15:30:31.067Z,98011.44
2017-07-04T15:32:58.481Z,98001.42
2017-07-04T15:35:25.932Z,98002.05
2017-07-04T15:37:53.341Z,98001.83
2017-07-04T15:40:20.824Z,98001.31
2017-07-04T15:42:48.369Z,97999.88
2017-07-04T15:45:15.964Z,98001.70
2017-07-04T15:47:43.418Z,97997.41
2017-07-04T15:50:10.900Z,97995.45
2017-07-04T15:52:38.376Z,97998.20
2017-07-04T15:55:05.778Z,97995.05
2017-07-04T15:57:33.192Z,97994.05
2017-07-04T16:00:00.671Z,97983.58
2017-07-04T16:02:28.090Z,97975.91
2017-07-04T16:04:55.556Z,97982.23
2017-07-04T16:07:23.288Z,97980.84
2017-07-04T16:09:50.709Z,97980.86
2017-07-04T16:12:18.167Z,97971.73
2017-07-04T16:14:45.626Z,97976.13
2017-07-04T16:17:13.074Z,97973.55
2017-07-04T16:19:40.528Z,97968.23
2017-07-04T16:22:07.959Z,97975.72
2017-07-04T16:24:35.519Z,97975.48
2017-07-04T16:27:02.978Z,97973.32
2017-07-04T16:29:30.847Z,97969.77
2017-07-04T16:31:58.341Z,97971.17
2017-07-04T16:34:25.801Z,97981.04
2017-07-04T16:36:53.225Z,97978.48
2017-07-04T16:39:20.768Z,97972.56
2017-07-04T16:41:48.228Z,97968.78
2017-07-04T16:44:15.660Z,97971.90
2017-07-04T16:46:43.089Z,97967.59
2017-07-04T16:49:10.504Z,97966.81
2017-07-04T16:51:37.949Z,97966.05
2017-07-04T16:54:05.486Z,97964.22
2017-07-04T16:56:32.924Z,97972.48
2017-07-04T16:59:00.366Z,97965.02
2017-07-04T17:01:27.807Z,97969.34
2017-07-04T17:03:55.265Z,97961.87
2017-07-04T17:06:22.677Z,97959.27
2017-07-04T17:08:50.095Z,97955.31
2017-07-04T17:11:17.562Z,97962.23
2017-07-04T17:13:45.051Z,97964.39
2017-07-04T17:16:12.487Z,97960.41
2017-07-04T17:18:40.001Z,97959.44
2017-07-04T17:21:07.472Z,97962.20
2017-07-04T17:23:34.932Z,97968.48
2017-07-04T17:26:02.447Z,97964.89
2017-07-04T17:28:29.949Z,97965.64
2017-07-04T17:30:57.433Z,97967.75
2017-07-04T17:33:24.888Z,97972.09
2017-07-04T17:35:52.365Z,97970.48
2017-07-04T17:38:19.831Z,97970.70
2017-07-04T17:40:47.252Z,97974.02
2017-07-04T17:43:14.779Z,97975.00
2017-07-04T17:45:42.194Z,97979.72
2017-07-04T17:48:10.021Z,97972.03
2017-07-04T17:50:37.507Z,97976.55
2017-07-04T17:53:04.956Z,97976.55
2017-07-04T17:55:32.443Z,97972.16
2017-07-04T17:57:59.925Z,97974.70
2017-07-04T18:00:27.365Z,97976.97
2017-07-04T18:02:54.776Z,97976.98
2017-07-04T18:05:22.181Z,97978.83
2017-07-04T18:07:49.680Z,97977.05
2017-07-04T18:10:17.089Z,97972.34
2017-07-04T18:12:44.527Z,97970.75
2017-07-04T18:15:11.944Z,97968.36
2017-07-04T18:17:39.404Z,97974.68
2017-07-04T18:20:06.805Z,97970.19
2017-07-04T18:22:34.248Z,97969.75
2017-07-04T18:25:01.687Z,97970.75
2017-07-04T18:27:29.118Z,97971.12
2017-07-04T18:29:56.581Z,97968.59
2017-07-04T18:32:23.995Z,97967.95
2017-07-04T18:34:51.516Z,97963.20
2017-07-04T18:37:18.960Z,97964.76
2017-07-04T18:39:46.382Z,97967.61
2017-07-04T18:42:13.832Z,97970.97
2017-07-04T18:44:41.259Z,97969.25
2017-07-04T18:47:08.689Z,97969.42
2017-07-04T18:49:36.223Z,97969.94
2017-07-04T18:52:03.638Z,97970.32
2017-07-04T18:54:31.097Z,97976.02
2017-07-04T18:56:58.511Z,97975.17
2017-07-04T18:59:25.963Z,97970.38
2017-07-04T19:01:53.381Z,97972.10
2017-07-04T19:04:20.808Z,97965.38
2017-07-04T19:06:48.273Z,97973.58
2017-07-04T19:09:15.694Z,97974.90
2017-07-04T19:11:43.110Z,97969.18
2017-07-04T19:14:10.556Z,97971.27
2017-07-04T19:16:37.967Z,97973.75
2017-07-04T19:19:05.475Z,97974.46
2017-07-04T19:21:32.922Z,97975.14
2017-07-04T19:24:00.355Z,97972.89
2017-07-04T19:26:27.841Z,97978.95
2017-07-04T19:28:55.322Z,97972.98
2017-07-04T19:31:22.784Z,97980.16
2017-07-04T19:33:50.312Z,97980.16
2017-07-04T19:36:17.756Z,97979.81
2017-07-04T19:38:45.274Z,97985.50
2017-07-04T19:41:12.708Z,97991.18
2017-07-04T19:43:41.023Z,97989.17
2017-07-04T19:46:08.493Z,97987.75
2017-07-04T19:48:35.906Z,97993.40
2017-07-04T19:51:04.176Z,97999.23
2017-07-04T19:53:31.633Z,98001.38
2017-07-04T19:55:59.116Z,98001.93
2017-07-04T19:58:26.595Z,98000.10
2017-07-04T20:00:54.037Z,98005.33
2017-07-04T20:03:21.510Z,98003.47
2017-07-04T20:05:48.957Z,98008.91
2017-07-04T20:08:16.477Z,98009.52
2017-07-04T20:10:43.933Z,98013.19
2017-07-04T20:13:11.587Z,98009.82
2017-07-04T20:15:39.104Z,98007.26
2017-07-04T20:18:06.590Z,98014.23
2017-07-04T20:20:34.130Z,98024.84
2017-07-04T20:23:01.585Z,98022.49
2017-07-04T20:25:28.986Z,98025.38
2017-07-04T20:27:56.460Z,98026.69
2017-07-04T20:30:23.867Z,98024.02
2017-07-04T20:32:51.661Z,98025.69
2017-07-04T20:35:19.056Z,98027.06
2017-07-04T20:37:46.525Z,98026.99
2017-07-04T20:40:13.997Z,98032.47
2017-07-04T20:42:41.474Z,98026.45
2017-07-04T20:45:08.919Z,98030.33
2017-07-04T20:47:36.378Z,98027.69
2017-07-04T20:50:03.784Z,98029.95
2017-07-04T20:52:31.236Z,98026.16
2017-07-04T20:54:58.690Z,98022.12
2017-07-04T20:57:26.108Z,98022.52
2017-07-04T20:59:53.576Z,98028.00
2017-07-04T21:02:21.037Z,98030.30
2017-07-04T21:04:48.467Z,98024.34
2017-07-04T21:07:15.877Z,98027.25
2017-07-04T21:09:43.392Z,98031.24
2017-07-04T21:12:10.802Z,98030.59
2017-07-04T21:14:38.256Z,98026.38
2017-07-04T21:17:05.663Z,98031.88
2017-07-04T21:19:33.095Z,98029.14
2017-07-04T21:22:00.544Z,98027.86
2017-07-04T21:24:27.993Z,98033.03
2017-07-04T21:26:55.618Z,98028.84
2017-07-04T21:29:23.028Z,98029.45
2017-07-04T21:31:50.510Z,98024.77
2017-07-04T21:34:17.926Z,98018.98
2017-07-04T21:36:45.343Z,98025.48
2017-07-04T21:39:12.832Z,98032.89
2017-07-04T21:41:40.248Z,98027.51
2017-07-04T21:44:07.671Z,98032.70
2017-07-04T21:46:35.157Z,98020.73
2017-07-04T21:49:02.564Z,98018.19
2017-07-04T21:51:30.059Z,98022.38
2017-07-04T21:53:57.608Z,98026.56
2017-07-04T21:56:25.042Z,98022.36
2017-07-04T21:58:52.483Z,98026.06
2017-07-04T22:01:19.913Z,98019.17
2017-07-04T22:03:47.344Z,98019.64
2017-07-04T22:06:14.792Z,98018.62
2017-07-04T22:08:42.204Z,98015.53
2017-07-04T22:11:09.776Z,98025.16
2017-07-04T22:13:37.218Z,98027.75
2017-07-04T22:16:04.631Z,98026.69
2017-07-04T22:18:32.060Z,98025.77
2017-07-04T22:20:59.489Z,98021.70
2017-07-04T22:23:26.938Z,98029.38
2017-07-04T22:25:54.359Z,98022.84
2017-07-04T22:28:21.804Z,98020.95
2017-07-04T22:30:49.233Z,98022.62
2017-07-04T22:33:20.540Z,98022.73
2017-07-04T22:35:47.988Z,98020.15
2017-07-04T22:38:15.421Z,98016.79
2017-07-04T22:40:42.815Z,98018.05
2017-07-04T22:43:10.258Z,98014.98
2017-07-04T22:45:37.680Z,98013.45
2017-07-04T22:48:05.129Z,98010.77
2017-07-04T22:50:32.546Z,98010.04
2017-07-04T22:53:00.069Z,98012.70
2017-07-04T22:55:27.492Z,98000.52
2017-07-04T22:57:55.516Z,98002.00
2017-07-04T23:00:22.964Z,98003.41
2017-07-04T23:02:50.376Z,98002.12
2017-07-04T23:05:17.806Z,98004.91
2017-07-04T23:07:45.243Z,98005.02
2017-07-04T23:10:12.661Z,97998.38
2017-07-04T23:12:40.098Z,97997.07
2017-07-04T23:15:07.544Z,97999.39
2017-07-04T23:17:34.958Z,97997.17
2017-07-04T23:20:02.391Z,97996.75
2017-07-04T23:22:29.799Z,98002.34
2017-07-04T23:24:57.268Z,97998.86
2017-07-04T23:27:25.010Z,98000.73
2017-07-04T23:29:52.526Z,98003.11
2017-07-04T23:32:19.925Z,98002.06
2017-07-04T23:34:47.380Z,98000.36
2017-07-04T23:37:14.783Z,97998.96
2017-07-04T23:39:42.239Z,97991.22
2017-07-04T23:42:09.648Z,97986.16
2017-07-04T23:44:37.093Z,97982.07
2017-07-04T23:47:04.616Z,97975.64
2017-07-04T23:49:32.398Z,97978.20
2017-07-04T23:51:59.830Z,97973.22
2017-07-04T23:54:27.253Z,97965.09
2017-07-04T23:56:54.685Z,97969.92
2017-07-04T23:59:22.161Z,97960.89
